createdAt,value
2017-06-14T00:01:11.554Z,13.50
2017-06-14T00:03:39.924Z,13.50
2017-06-14T00:06:09.160Z,13.50
2017-06-14T00:08:37.997Z,13.40
2017-06-14T00:11:06.452Z,13.40
2017-06-14T00:13:35.917Z,13.30
2017-06-14T00:16:04.310Z,13.30
2017-06-14T00:18:32.688Z,13.20
2017-06-14T00:21:01.385Z,13.20
2017-06-14T00:23:30.178Z,13.20
2017-06-14T00:25:58.567Z,13.10
2017-06-14T00:28:26.872Z,13.10
2017-06-14T00:30:55.937Z,13.00
2017-06-14T00:33:24.637Z,13.00
2017-06-14T00:35:53.024Z,13.00
2017-06-14T00:38:22.173Z,12.90
2017-06-14T00:40:50.476Z,12.90
2017-06-14T00:43:18.776Z,12.90
2017-06-14T00:45:47.861Z,12.90
2017-06-14T00:48:16.661Z,12.90
2017-06-14T00:50:44.955Z,12.80
2017-06-14T00:53:13.281Z,12.80
2017-06-14T00:55:42.946Z,12.80
2017-06-14T00:58:11.339Z,12.80
2017-06-14T01:00:39.712Z,12.80
2017-06-14T01:03:08.084Z,12.80
2017-06-14T01:05:36.992Z,12.70
2017-06-14T01:08:05.283Z,12.70
2017-06-14T01:10:34.371Z,12.70
2017-06-14T01:13:03.161Z,12.70
2017-06-14T01:15:31.849Z,12.60
2017-06-14T01:18:00.260Z,12.60
2017-06-14T01:20:29.354Z,12.60
2017-06-14T01:22:58.128Z,12.60
2017-06-14T01:25:26.507Z,12.50
2017-06-14T01:27:54.792Z,12.50
2017-06-14T01:30:23.189Z,12.50
2017-06-14T01:32:51.564Z,12.50
2017-06-14T01:35:19.849Z,12.50
2017-06-14T01:37:48.158Z,12.50
2017-06-14T01:40:17.212Z,12.40
2017-06-14T01:42:45.913Z,12.30
2017-06-14T01:45:15.124Z,12.30
2017-06-14T01:47:43.406Z,12.30
2017-06-14T01:50:11.710Z,12.30
2017-06-14T01:52:40.648Z,12.30
2017-06-14T01:55:08.973Z,12.20
2017-06-14T01:57:37.357Z,12.20
2017-06-14T02:00:06.392Z,12.10
2017-06-14T02:02:35.039Z,12.10
2017-06-14T02:05:04.559Z,12.10
2017-06-14T02:07:33.440Z,12.00
2017-06-14T02:10:01.735Z,12.00
2017-06-14T02:12:30.119Z,12.00
2017-06-14T02:14:58.431Z,12.00
2017-06-14T02:17:27.493Z,11.90
2017-06-14T02:19:55.817Z,12.00
2017-06-14T02:22:24.545Z,11.90
2017-06-14T02:24:52.836Z,11.90
2017-06-14T02:27:21.125Z,11.90
2017-06-14T02:29:49.888Z,11.80
2017-06-14T02:32:18.301Z,11.80
2017-06-14T02:34:47.317Z,11.80
2017-06-14T02:37:16.165Z,11.80
2017-06-14T02:39:44.589Z,11.80
2017-06-14T02:42:13.156Z,11.70
2017-06-14T02:44:41.897Z,11.70
2017-06-14T02:47:11.564Z,11.70
2017-06-14T02:49:40.380Z,11.70
2017-06-14T02:52:09.157Z,11.70
2017-06-14T02:54:37.508Z,11.60
2017-06-14T02:57:06.035Z,11.70
2017-06-14T02:59:34.609Z,11.70
2017-06-14T03:02:02.896Z,11.60
2017-06-14T03:04:31.275Z,11.60
2017-06-14T03:06:59.967Z,11.60
2017-06-14T03:09:28.757Z,11.60
2017-06-14T03:11:57.146Z,11.60
2017-06-14T03:14:25.901Z,11.60
2017-06-14T03:16:54.213Z,11.70
2017-06-14T03:19:22.494Z,11.70
2017-06-14T03:21:52.804Z,11.70
2017-06-14T03:24:21.109Z,11.70
2017-06-14T03:26:49.489Z,11.70
2017-06-14T03:29:17.878Z,11.80
2017-06-14T03:31:46.365Z,11.80
2017-06-14T03:34:14.861Z,11.80
2017-06-14T03:36:44.154Z,11.80
2017-06-14T03:39:12.549Z,11.80
2017-06-14T03:41:41.324Z,11.80
2017-06-14T03:44:11.349Z,11.80
2017-06-14T03:46:39.837Z,11.90
2017-06-14T03:49:10.257Z,11.90
2017-06-14T03:51:38.549Z,12.00
2017-06-14T03:54:06.943Z,12.00
2017-06-14T03:56:35.725Z,12.00
2017-06-14T03:59:04.114Z,12.10
2017-06-14T04:01:32.413Z,12.10
2017-06-14T04:04:01.641Z,12.10
2017-06-14T04:06:30.797Z,12.20
2017-06-14T04:08:59.472Z,12.20
2017-06-14T04:11:28.393Z,12.20
2017-06-14T04:14:00.344Z,12.20
2017-06-14T04:16:28.733Z,12.20
2017-06-14T04:18:58.744Z,12.30
2017-06-14T04:21:27.129Z,12.30
2017-06-14T04:23:56.135Z,12.30
2017-06-14T04:26:24.461Z,12.40
2017-06-14T04:28:52.833Z,12.40
2017-06-14T04:31:21.789Z,12.40
2017-06-14T04:33:50.805Z,12.50
2017-06-14T04:36:19.188Z,12.50
2017-06-14T04:38:48.508Z,12.60
2017-06-14T04:41:16.832Z,12.60
2017-06-14T04:43:45.157Z,12.60
2017-06-14T04:46:14.141Z,12.60
2017-06-14T04:48:42.541Z,12.70
2017-06-14T04:51:11.330Z,12.60
2017-06-14T04:53:39.716Z,12.70
2017-06-14T04:56:08.482Z,12.70
2017-06-14T04:58:36.772Z,12.90
2017-06-14T05:01:05.075Z,12.90
2017-06-14T05:03:33.789Z,12.90
2017-06-14T05:06:03.375Z,13.00
2017-06-14T05:08:31.759Z,13.00
2017-06-14T05:11:00.640Z,13.00
2017-06-14T05:13:29.342Z,13.20
2017-06-14T05:15:58.666Z,13.30
2017-06-14T05:18:28.149Z,13.40
2017-06-14T05:20:56.490Z,13.30
2017-06-14T05:23:24.809Z,13.40
2017-06-14T05:25:53.112Z,13.40
2017-06-14T05:28:22.101Z,13.40
2017-06-14T05:30:51.117Z,13.60
2017-06-14T05:33:20.193Z,13.70
2017-06-14T05:35:48.484Z,13.70
2017-06-14T05:38:16.843Z,13.70
2017-06-14T05:40:45.453Z,13.80
2017-06-14T05:43:13.821Z,13.90
2017-06-14T05:45:42.210Z,13.90
2017-06-14T05:48:10.604Z,14.20
2017-06-14T05:50:38.896Z,14.30
2017-06-14T05:53:07.978Z,14.20
2017-06-14T05:55:36.297Z,14.20
2017-06-14T05:58:05.364Z,14.20
2017-06-14T06:00:34.512Z,14.10
2017-06-14T06:03:02.848Z,14.20
2017-06-14T06:05:31.845Z,14.10
2017-06-14T06:08:00.232Z,14.00
2017-06-14T06:10:28.608Z,14.00
2017-06-14T06:12:57.298Z,14.10
2017-06-14T06:15:25.688Z,14.20
2017-06-14T06:17:54.485Z,14.30
2017-06-14T06:20:22.845Z,14.50
2017-06-14T06:22:51.139Z,14.60
2017-06-14T06:25:19.423Z,14.60
2017-06-14T06:27:47.796Z,14.60
2017-06-14T06:30:16.091Z,14.60
2017-06-14T06:32:44.415Z,14.70
2017-06-14T06:35:12.767Z,14.80
2017-06-14T06:37:41.141Z,14.80
2017-06-14T06:40:09.452Z,14.80
2017-06-14T06:42:38.520Z,15.10
2017-06-14T06:45:06.893Z,15.00
2017-06-14T06:47:35.990Z,15.20
2017-06-14T06:50:04.381Z,15.30
2017-06-14T06:52:32.765Z,15.20
2017-06-14T06:55:01.260Z,15.30
2017-06-14T06:57:30.044Z,15.30
2017-06-14T06:59:58.348Z,15.40
2017-06-14T07:02:27.062Z,15.50
2017-06-14T07:04:56.147Z,15.50
2017-06-14T07:07:25.221Z,15.40
2017-06-14T07:09:53.634Z,15.40
2017-06-14T07:12:22.413Z,15.50
2017-06-14T07:14:50.712Z,15.70
2017-06-14T07:17:20.396Z,15.60
2017-06-14T07:19:49.746Z,15.60
2017-06-14T07:22:18.086Z,15.50
2017-06-14T07:24:46.878Z,15.70
2017-06-14T07:27:15.388Z,16.00
2017-06-14T07:29:44.874Z,16.20
2017-06-14T07:32:13.361Z,16.20
2017-06-14T07:34:41.739Z,16.40
2017-06-14T07:37:10.019Z,16.50
2017-06-14T07:39:38.710Z,16.60
2017-06-14T07:42:07.499Z,16.80
2017-06-14T07:44:35.800Z,17.00
2017-06-14T07:47:04.560Z,17.20
2017-06-14T07:49:32.874Z,17.40
2017-06-14T07:52:01.246Z,17.50
2017-06-14T07:54:30.556Z,17.90
2017-06-14T07:56:59.863Z,17.90
2017-06-14T07:59:28.344Z,18.10
2017-06-14T08:01:56.625Z,18.30
2017-06-14T08:04:25.314Z,18.10
2017-06-14T08:06:54.359Z,17.90
2017-06-14T08:09:23.504Z,17.60
2017-06-14T08:11:51.807Z,17.60
2017-06-14T08:14:20.196Z,17.50
2017-06-14T08:16:48.798Z,17.70
2017-06-14T08:19:20.106Z,17.90
2017-06-14T08:21:48.377Z,18.00
2017-06-14T08:24:16.891Z,18.20
2017-06-14T08:26:46.410Z,17.80
2017-06-14T08:29:15.389Z,17.50
2017-06-14T08:31:43.776Z,17.90
2017-06-14T08:34:12.156Z,18.10
2017-06-14T08:36:41.465Z,17.90
2017-06-14T08:39:10.134Z,18.00
2017-06-14T08:41:38.480Z,18.10
2017-06-14T08:44:07.483Z,18.30
2017-06-14T08:46:35.854Z,18.70
2017-06-14T08:49:04.529Z,18.70
2017-06-14T08:51:32.919Z,18.60
2017-06-14T08:54:01.805Z,18.70
2017-06-14T08:56:31.955Z,18.90
2017-06-14T08:59:02.308Z,18.90
2017-06-14T09:01:31.316Z,18.90
2017-06-14T09:03:59.591Z,18.90
2017-06-14T09:06:27.949Z,19.00
2017-06-14T09:08:57.758Z,18.50
2017-06-14T09:11:26.068Z,18.50
2017-06-14T09:13:54.765Z,18.50
2017-06-14T09:16:23.037Z,18.60
2017-06-14T09:18:51.370Z,18.70
2017-06-14T09:21:19.771Z,18.70
2017-06-14T09:23:48.830Z,18.80
2017-06-14T09:26:17.236Z,18.80
2017-06-14T09:28:45.531Z,18.90
2017-06-14T09:31:14.608Z,19.60
2017-06-14T09:33:42.992Z,19.60
2017-06-14T09:36:11.629Z,19.90
2017-06-14T09:38:39.977Z,20.10
2017-06-14T09:41:08.332Z,19.60
2017-06-14T09:43:36.742Z,19.30
2017-06-14T09:46:05.421Z,19.20
2017-06-14T09:48:34.546Z,19.30
2017-06-14T09:51:03.634Z,19.60
2017-06-14T09:53:32.959Z,19.60
2017-06-14T09:56:02.026Z,20.10
2017-06-14T09:58:51.404Z,20.00
2017-06-14T10:01:19.682Z,20.20
2017-06-14T10:03:48.013Z,20.30
2017-06-14T10:06:16.735Z,20.70
2017-06-14T10:08:45.424Z,20.80
2017-06-14T10:11:15.095Z,20.50
2017-06-14T10:13:43.413Z,20.60
2017-06-14T10:16:12.805Z,21.20
2017-06-14T10:18:42.296Z,21.00
2017-06-14T10:21:10.601Z,21.00
2017-06-14T10:23:39.912Z,21.60
2017-06-14T10:26:09.293Z,21.60
2017-06-14T10:28:38.388Z,21.50
2017-06-14T10:31:08.301Z,21.30
2017-06-14T10:33:37.457Z,21.70
2017-06-14T10:36:06.521Z,22.10
2017-06-14T10:38:36.474Z,22.10
2017-06-14T10:41:05.271Z,22.10
2017-06-14T10:43:33.588Z,22.40
2017-06-14T10:46:01.969Z,22.40
2017-06-14T10:48:30.377Z,22.30
2017-06-14T10:50:59.667Z,22.60
2017-06-14T10:53:28.870Z,23.30
2017-06-14T10:55:58.069Z,23.30
2017-06-14T10:58:26.367Z,23.40
2017-06-14T11:00:54.665Z,24.30
2017-06-14T11:03:23.753Z,26.50
2017-06-14T11:05:52.840Z,26.90
2017-06-14T11:08:21.149Z,26.80
2017-06-14T11:10:49.446Z,26.50
2017-06-14T11:13:18.488Z,26.90
2017-06-14T11:15:46.888Z,28.10
2017-06-14T11:18:15.212Z,27.90
2017-06-14T11:20:43.541Z,29.00
2017-06-14T11:23:12.440Z,29.50
2017-06-14T11:25:41.600Z,28.80
2017-06-14T11:28:10.621Z,28.20
2017-06-14T11:30:40.169Z,31.60
2017-06-14T11:33:08.961Z,31.50
2017-06-14T11:35:38.053Z,33.00
2017-06-14T11:38:06.468Z,32.90
2017-06-14T11:40:34.751Z,30.90
2017-06-14T11:43:04.344Z,31.80
2017-06-14T11:45:32.712Z,31.80
2017-06-14T11:48:01.534Z,33.00
2017-06-14T11:50:30.635Z,33.10
2017-06-14T11:53:00.525Z,32.30
2017-06-14T11:55:28.893Z,32.30
2017-06-14T11:57:57.260Z,32.60
2017-06-14T12:00:25.617Z,31.50
2017-06-14T12:02:54.950Z,30.20
2017-06-14T12:05:23.277Z,29.10
2017-06-14T12:07:51.768Z,29.10
2017-06-14T12:10:20.172Z,28.40
2017-06-14T12:12:49.552Z,30.00
2017-06-14T12:15:17.973Z,30.00
2017-06-14T12:17:46.477Z,30.50
2017-06-14T12:20:15.238Z,30.30
2017-06-14T12:22:43.949Z,30.00
2017-06-14T12:25:12.582Z,29.50
2017-06-14T12:27:41.155Z,29.80
2017-06-14T12:30:10.282Z,30.30
2017-06-14T12:32:38.602Z,31.30
2017-06-14T12:35:07.216Z,30.80
2017-06-14T12:37:35.569Z,31.20
2017-06-14T12:40:03.891Z,32.10
2017-06-14T12:42:32.204Z,31.80
2017-06-14T12:45:00.518Z,32.10
2017-06-14T12:47:29.969Z,34.80
2017-06-14T12:49:58.761Z,34.80
2017-06-14T12:52:27.142Z,34.80
2017-06-14T12:54:59.235Z,37.70
2017-06-14T12:57:28.731Z,38.50
2017-06-14T12:59:57.968Z,38.40
2017-06-14T13:02:27.420Z,37.50
2017-06-14T13:04:56.346Z,37.40
2017-06-14T13:07:24.729Z,37.70
2017-06-14T13:09:54.223Z,39.00
2017-06-14T13:12:22.505Z,39.00
2017-06-14T13:14:51.286Z,37.90
2017-06-14T13:17:20.798Z,41.50
2017-06-14T13:19:50.069Z,41.40
2017-06-14T13:22:18.410Z,39.90
2017-06-14T13:24:46.783Z,39.70
2017-06-14T13:27:15.586Z,40.20
2017-06-14T13:29:44.869Z,39.60
2017-06-14T13:32:13.262Z,38.70
2017-06-14T13:34:43.639Z,36.90
2017-06-14T13:37:13.412Z,39.60
2017-06-14T13:39:42.519Z,41.10
2017-06-14T13:42:11.868Z,42.20
2017-06-14T13:44:41.423Z,43.10
2017-06-14T13:47:10.367Z,43.10
2017-06-14T13:49:41.710Z,41.70
2017-06-14T13:52:10.097Z,41.70
2017-06-14T13:54:39.309Z,41.70
2017-06-14T13:57:09.553Z,38.70
2017-06-14T13:59:38.140Z,38.60
2017-06-14T14:02:06.449Z,39.30
2017-06-14T14:04:34.731Z,40.40
2017-06-14T14:07:04.210Z,42.30
2017-06-14T14:09:33.697Z,40.50
2017-06-14T14:12:02.040Z,40.50
2017-06-14T14:14:30.637Z,39.70
2017-06-14T14:16:59.721Z,39.30
2017-06-14T14:19:28.817Z,39.30
2017-06-14T14:21:57.108Z,39.20
2017-06-14T14:24:28.221Z,39.40
2017-06-14T14:26:56.736Z,38.40
2017-06-14T14:29:26.803Z,37.20
2017-06-14T14:31:55.130Z,37.20
2017-06-14T14:34:24.186Z,37.10
2017-06-14T14:36:52.541Z,36.70
2017-06-14T14:39:20.845Z,37.40
2017-06-14T14:41:49.870Z,37.50
2017-06-14T14:44:18.189Z,37.80
2017-06-14T14:46:47.269Z,37.70
2017-06-14T14:49:15.982Z,39.30
2017-06-14T14:51:45.429Z,37.60
2017-06-14T14:54:13.772Z,37.60
2017-06-14T14:56:42.466Z,37.00
2017-06-14T14:59:11.570Z,36.40
2017-06-14T15:01:40.679Z,37.30
2017-06-14T15:04:09.768Z,38.40
2017-06-14T15:06:38.084Z,38.40
2017-06-14T15:09:06.829Z,37.40
2017-06-14T15:11:35.906Z,40.10
2017-06-14T15:14:04.215Z,40.10
2017-06-14T15:16:32.533Z,39.00
2017-06-14T15:19:02.503Z,40.50
2017-06-14T15:21:31.665Z,40.40
2017-06-14T15:24:00.911Z,41.10
2017-06-14T15:26:30.412Z,40.20
2017-06-14T15:28:59.423Z,40.10
2017-06-14T15:31:29.045Z,38.30
2017-06-14T15:33:57.325Z,37.10
2017-06-14T15:36:25.646Z,37.40
2017-06-14T15:38:53.969Z,36.90
2017-06-14T15:43:53.006Z,34.10
2017-06-14T15:46:22.208Z,32.70
2017-06-14T15:48:51.961Z,31.00
2017-06-14T15:51:20.757Z,29.90
2017-06-14T15:53:49.797Z,28.80
2017-06-14T15:56:18.922Z,28.70
2017-06-14T15:58:47.225Z,28.40
2017-06-14T16:01:15.598Z,27.70
2017-06-14T16:03:44.564Z,27.00
2017-06-14T16:06:12.889Z,26.60
2017-06-14T16:08:41.915Z,26.50
2017-06-14T16:11:10.227Z,27.00
2017-06-14T16:13:38.496Z,27.50
2017-06-14T16:16:06.822Z,27.30
2017-06-14T16:18:35.878Z,26.70
2017-06-14T16:21:04.202Z,26.70
2017-06-14T16:23:33.380Z,26.60
2017-06-14T16:26:02.478Z,26.60
2017-06-14T16:28:32.346Z,26.50
2017-06-14T16:31:00.664Z,26.50
2017-06-14T16:33:29.024Z,26.40
2017-06-14T16:35:57.556Z,26.10
2017-06-14T16:38:26.257Z,25.90
2017-06-14T16:40:55.357Z,25.70
2017-06-14T16:43:23.723Z,25.70
2017-06-14T16:45:52.126Z,25.50
2017-06-14T16:48:20.723Z,25.20
2017-06-14T16:50:49.526Z,25.20
2017-06-14T16:53:19.916Z,25.10
2017-06-14T16:55:48.293Z,25.00
2017-06-14T16:58:16.638Z,25.00
2017-06-14T17:00:45.679Z,24.90
2017-06-14T17:03:14.685Z,24.90
2017-06-14T17:05:44.012Z,24.90
2017-06-14T17:08:13.783Z,25.10
2017-06-14T17:10:42.449Z,25.10
2017-06-14T17:13:10.891Z,24.90
2017-06-14T17:15:39.690Z,24.80
2017-06-14T17:18:08.893Z,25.00
2017-06-14T17:20:38.417Z,25.20
2017-06-14T17:23:06.966Z,25.10
2017-06-14T17:25:35.276Z,25.20
2017-06-14T17:28:04.366Z,25.20
2017-06-14T17:30:32.953Z,25.10
2017-06-14T17:33:01.256Z,25.30
2017-06-14T17:35:29.861Z,25.30
2017-06-14T17:37:58.174Z,25.30
2017-06-14T17:40:27.079Z,25.10
2017-06-14T17:42:56.644Z,24.90
2017-06-14T17:45:25.321Z,24.80
2017-06-14T17:47:54.500Z,24.40
2017-06-14T17:50:23.492Z,24.40
2017-06-14T17:52:52.058Z,24.30
2017-06-14T17:55:20.365Z,24.20
2017-06-14T17:57:48.981Z,24.10
2017-06-14T18:00:18.062Z,23.90
2017-06-14T18:02:47.145Z,23.80
2017-06-14T18:05:16.356Z,23.80
2017-06-14T18:07:44.720Z,23.80
2017-06-14T18:10:13.657Z,23.80
2017-06-14T18:12:43.551Z,23.80
2017-06-14T18:15:12.199Z,23.80
2017-06-14T18:17:40.661Z,23.80
2017-06-14T18:20:10.066Z,23.90
2017-06-14T18:22:39.865Z,23.90
2017-06-14T18:25:08.988Z,23.90
2017-06-14T18:27:38.091Z,23.90
2017-06-14T18:30:08.080Z,23.90
2017-06-14T18:32:36.790Z,23.80
2017-06-14T18:35:05.125Z,23.90
2017-06-14T18:37:33.546Z,23.80
2017-06-14T18:40:01.853Z,23.70
2017-06-14T18:42:30.350Z,23.70
2017-06-14T18:44:58.664Z,23.70
2017-06-14T18:47:27.286Z,23.60
2017-06-14T18:49:56.464Z,23.30
2017-06-14T18:52:24.834Z,23.30
2017-06-14T18:54:53.133Z,23.10
2017-06-14T18:57:21.425Z,23.00
2017-06-14T18:59:49.880Z,22.90
2017-06-14T19:02:18.282Z,22.80
2017-06-14T19:04:47.891Z,22.60
2017-06-14T19:07:16.197Z,22.50
2017-06-14T19:09:45.085Z,22.40
2017-06-14T19:12:14.150Z,22.20
2017-06-14T19:14:42.764Z,22.20
2017-06-14T19:17:11.429Z,22.00
2017-06-14T19:19:39.729Z,21.90
2017-06-14T19:22:08.059Z,21.80
2017-06-14T19:24:37.119Z,21.60
2017-06-14T19:27:05.455Z,21.50
2017-06-14T19:29:33.766Z,21.50
2017-06-14T19:32:03.114Z,21.40
2017-06-14T19:34:32.231Z,21.30
2017-06-14T19:37:01.500Z,21.20
2017-06-14T19:39:30.995Z,21.00
2017-06-14T19:41:59.271Z,20.90
2017-06-14T19:44:27.683Z,20.80
2017-06-14T19:46:56.030Z,20.80
2017-06-14T19:49:24.436Z,20.70
2017-06-14T19:51:52.827Z,20.60
2017-06-14T19:54:21.713Z,20.50
2017-06-14T19:56:51.409Z,20.50
2017-06-14T19:59:19.711Z,20.40
2017-06-14T20:01:48.124Z,20.30
2017-06-14T20:04:17.297Z,20.10
2017-06-14T20:06:45.701Z,20.10
2017-06-14T20:09:15.374Z,20.00
2017-06-14T20:11:44.329Z,20.00
2017-06-14T20:14:13.540Z,19.90
2017-06-14T20:16:41.952Z,19.80
2017-06-14T20:19:11.174Z,19.70
2017-06-14T20:21:39.656Z,19.70
2017-06-14T20:24:08.436Z,19.60
2017-06-14T20:26:37.449Z,19.50
2017-06-14T20:29:05.849Z,19.50
2017-06-14T20:31:34.934Z,19.40
2017-06-14T20:34:03.258Z,19.30
2017-06-14T20:36:32.993Z,19.20
2017-06-14T20:39:02.149Z,19.10
2017-06-14T20:41:31.236Z,18.90
2017-06-14T20:44:00.070Z,18.90
2017-06-14T20:46:28.573Z,18.80
2017-06-14T20:48:56.943Z,18.70
2017-06-14T20:51:25.237Z,18.70
2017-06-14T20:53:54.261Z,18.60
2017-06-14T20:56:22.577Z,18.50
2017-06-14T20:58:51.653Z,18.30
2017-06-14T21:01:20.056Z,18.30
2017-06-14T21:03:48.937Z,18.30
2017-06-14T21:06:18.137Z,18.10
2017-06-14T21:08:47.197Z,18.10
2017-06-14T21:11:16.302Z,18.00
2017-06-14T21:13:44.976Z,17.90
2017-06-14T21:16:14.175Z,17.90
2017-06-14T21:18:43.212Z,17.90
2017-06-14T21:21:11.871Z,17.90
2017-06-14T21:23:40.205Z,17.80
2017-06-14T21:26:08.720Z,17.80
2017-06-14T21:28:37.821Z,17.70
2017-06-14T21:31:06.141Z,17.70
2017-06-14T21:33:34.489Z,17.60
2017-06-14T21:36:04.957Z,17.40
2017-06-14T21:38:33.253Z,17.40
2017-06-14T21:41:02.485Z,17.30
2017-06-14T21:43:30.909Z,17.30
2017-06-14T21:45:59.729Z,17.20
2017-06-14T21:48:28.920Z,17.20
2017-06-14T21:50:57.272Z,17.10
2017-06-14T21:53:27.241Z,17.00
2017-06-14T21:55:55.561Z,17.00
2017-06-14T21:58:23.981Z,16.90
2017-06-14T22:00:52.296Z,16.90
2017-06-14T22:03:20.600Z,16.80
2017-06-14T22:05:49.774Z,16.60
2017-06-14T22:08:18.237Z,16.60
2017-06-14T22:10:46.558Z,16.60
2017-06-14T22:13:14.929Z,16.50
2017-06-14T22:15:43.334Z,16.50
2017-06-14T22:18:11.604Z,16.40
2017-06-14T22:20:40.383Z,16.40
2017-06-14T22:23:08.684Z,16.30
2017-06-14T22:25:37.056Z,16.30
2017-06-14T22:28:05.565Z,16.20
2017-06-14T22:30:34.869Z,16.10
2017-06-14T22:33:03.933Z,16.00
2017-06-14T22:35:32.309Z,16.00
2017-06-14T22:38:00.628Z,16.00
2017-06-14T22:40:29.280Z,16.00
2017-06-14T22:42:57.896Z,16.00
2017-06-14T22:45:26.600Z,15.90
2017-06-14T22:47:55.647Z,15.90
2017-06-14T22:50:23.938Z,15.90
2017-06-14T22:52:52.327Z,15.90
2017-06-14T22:55:21.442Z,15.80
2017-06-14T22:57:50.123Z,15.80
2017-06-14T23:00:18.404Z,15.80
2017-06-14T23:02:46.802Z,15.80
2017-06-14T23:05:15.801Z,15.70
2017-06-14T23:07:45.000Z,15.70
2017-06-14T23:10:13.301Z,15.70
2017-06-14T23:12:42.695Z,15.60
2017-06-14T23:15:10.998Z,15.60
2017-06-14T23:17:41.213Z,15.60
2017-06-14T23:20:10.609Z,15.50
2017-06-14T23:22:39.011Z,15.50
2017-06-14T23:25:08.076Z,15.40
2017-06-14T23:27:36.462Z,15.40
2017-06-14T23:30:04.782Z,15.40
2017-06-14T23:32:34.676Z,15.30
2017-06-14T23:35:03.964Z,15.30
2017-06-14T23:37:32.877Z,15.30
2017-06-14T23:40:01.181Z,15.20
2017-06-14T23:42:30.520Z,15.20
2017-06-14T23:44:59.555Z,15.20
2017-06-14T23:47:28.491Z,15.10
2017-06-14T23:49:56.804Z,15.10
2017-06-14T23:52:25.104Z,15.00
2017-06-14T23:54:53.390Z,15.00
2017-06-14T23:57:21.792Z,14.90
2017-06-14T23:59:50.162Z,14.90
